Tuesday, May 22, 2018, 1:53 AM EDT
Back to Local

KFZY, Fulton Oswego County Airport

Location: Fulton, NY, United States Lat: 43.35
Local Time: 1:53 AM EDT ( 5:53 GMT) Lon: -76.383
Time Zone: US/Eastern Elev: 475 ft

Show me the last for .
Show Coded

Time T Td Feel RH Dir Speed Gust Alt SLP Vis Weather Sky Remarks
2018-05-22 00:54 56 48 - 74 - Calm - 30.15 30.14 10 CLR 24-hr Min Temp (1am): 45.0°F
24-hr Max Temp (1am): 73.9°F
2018-05-21 23:54 56 47 - 71 - Calm - 30.15 30.15 10 CLR None
2018-05-21 22:54 55 48 - 77 - Calm - 30.15 30.14 10 CLR None
2018-05-21 21:54 55 48 - 77 - Calm - 30.15 30.14 10 CLR None
2018-05-21 20:54 57 48 - 71 70° 3 - 30.13 30.13 10 CLR None
2018-05-21 19:54 64 45 - 49 - Calm - 30.14 30.14 10 CLR 6-hr Min Temp (8pm): 64.0°F
6-hr Max Temp (8pm): 73.9°F
2018-05-21 18:54 68 43 - 40 320° 5 - 30.15 30.14 10 CLR None
2018-05-21 17:54 71 45 - 39 320° 7 - 30.16 30.16 10 CLR None
2018-05-21 16:54 73 45 - 36 340° 8 - 30.16 30.15 10 CLR None
2018-05-21 15:54 74 46 - 37 340° 9 - 30.17 30.17 10 CLR None
2018-05-21 14:54 73 46 - 38 270° 5 - 30.19 30.18 10 CLR None
2018-05-21 13:54 71 45 - 39 Variable 6 - 30.20 30.20 10 CLR 6-hr Min Temp (2pm): 52.0°F
6-hr Max Temp (2pm): 71.1°F
2018-05-21 12:54 70 46 - 42 230° 6 - 30.22 30.22 10 CLR None
2018-05-21 11:54 67 47 - 48 310° 6 - 30.24 30.24 10 CLR None
2018-05-21 10:54 63 49 - 60 180° 6 - 30.25 30.25 10 CLR None
2018-05-21 09:54 60 46 - 59 250° 5 - 30.25 30.25 10 CLR None
2018-05-21 08:54 56 46 - 69 - Calm - 30.24 30.24 10 CLR None
2018-05-21 07:54 52 44 - 74 300° 7 - 30.24 30.24 10 CLR 24-hr Precip Total (8am): 0.04"
6-hr Min Temp (8am): 45.0°F
6-hr Max Temp (8am): 52.0°F
2018-05-21 06:54 49 43 46 79 270° 7 - 30.22 30.22 10 CLR None
2018-05-21 05:54 45 42 43 89 260° 5 - 30.20 30.20 10 CLR None
2018-05-21 04:54 46 43 43 88 280° 6 - 30.17 30.17 10 CLR None
2018-05-21 03:54 47 43 44 86 290° 6 - 30.16 30.16 10 CLR None
2018-05-21 02:54 48 43 46 82 300° 5 - 30.14 30.14 10 CLR None
2018-05-21 01:54 48 44 46 86 280° 5 - 30.15 30.15 10 CLR 6-hr Min Temp (2am): 48.0°F
6-hr Max Temp (2am): 59.0°F

Support USWX by starting your Amazon purchase here.